sensor_id;sensor_type;location;lat;lon;timestamp;P1;durP1;ratioP1;P2;durP2;ratioP2
17763;SDS011;22245;52.832;13.816;2023-06-04T00:01:41;10.52;;;6.03;;
17763;SDS011;22245;52.832;13.816;2023-06-04T00:05:05;8.45;;;5.43;;
17763;SDS011;22245;52.832;13.816;2023-06-04T00:08:27;7.95;;;5.60;;
17763;SDS011;22245;52.832;13.816;2023-06-04T00:11:49;10.45;;;5.65;;
17763;SDS011;22245;52.832;13.816;2023-06-04T00:15:12;11.40;;;7.00;;
17763;SDS011;22245;52.832;13.816;2023-06-04T00:18:37;16.95;;;7.68;;
17763;SDS011;22245;52.832;13.816;2023-06-04T00:21:59;9.88;;;6.00;;
17763;SDS011;22245;52.832;13.816;2023-06-04T00:25:20;10.27;;;6.07;;
17763;SDS011;22245;52.832;13.816;2023-06-04T00:28:42;9.73;;;5.68;;
17763;SDS011;22245;52.832;13.816;2023-06-04T00:32:04;12.43;;;6.07;;
17763;SDS011;22245;52.832;13.816;2023-06-04T00:35:28;12.53;;;5.97;;
17763;SDS011;22245;52.832;13.816;2023-06-04T00:38:50;13.10;;;5.63;;
17763;SDS011;22245;52.832;13.816;2023-06-04T00:42:12;10.67;;;5.17;;
17763;SDS011;22245;52.832;13.816;2023-06-04T00:45:33;11.73;;;4.73;;
17763;SDS011;22245;52.832;13.816;2023-06-04T00:48:55;9.60;;;4.30;;
17763;SDS011;22245;52.832;13.816;2023-06-04T00:52:18;6.20;;;3.67;;
17763;SDS011;22245;52.832;13.816;2023-06-04T00:55:40;5.50;;;3.30;;
17763;SDS011;22245;52.832;13.816;2023-06-04T00:59:03;4.17;;;3.17;;
17763;SDS011;22245;52.832;13.816;2023-06-04T01:02:26;3.63;;;2.80;;
17763;SDS011;22245;52.832;13.816;2023-06-04T01:05:51;8.33;;;3.63;;
17763;SDS011;22245;52.832;13.816;2023-06-04T01:09:20;7.83;;;3.10;;
17763;SDS011;22245;52.832;13.816;2023-06-04T01:12:42;8.40;;;3.47;;
17763;SDS011;22245;52.832;13.816;2023-06-04T01:16:05;5.43;;;3.43;;
17763;SDS011;22245;52.832;13.816;2023-06-04T01:19:45;5.57;;;3.17;;
17763;SDS011;22245;52.832;13.816;2023-06-04T01:23:28;4.40;;;2.50;;
17763;SDS011;22245;52.832;13.816;2023-06-04T01:26:56;3.90;;;2.63;;
17763;SDS011;22245;52.832;13.816;2023-06-04T01:30:18;4.33;;;2.73;;
17763;SDS011;22245;52.832;13.816;2023-06-04T01:33:41;5.13;;;2.70;;
17763;SDS011;22245;52.832;13.816;2023-06-04T01:37:03;6.53;;;2.60;;
17763;SDS011;22245;52.832;13.816;2023-06-04T01:40:25;5.63;;;2.67;;
17763;SDS011;22245;52.832;13.816;2023-06-04T01:43:48;5.83;;;2.67;;
17763;SDS011;22245;52.832;13.816;2023-06-04T01:47:10;4.93;;;2.20;;
17763;SDS011;22245;52.832;13.816;2023-06-04T01:50:31;3.33;;;2.20;;
17763;SDS011;22245;52.832;13.816;2023-06-04T01:53:53;2.93;;;2.00;;
17763;SDS011;22245;52.832;13.816;2023-06-04T01:57:15;4.50;;;2.47;;
17763;SDS011;22245;52.832;13.816;2023-06-04T02:00:38;3.17;;;2.30;;
17763;SDS011;22245;52.832;13.816;2023-06-04T02:04:00;6.37;;;2.40;;
17763;SDS011;22245;52.832;13.816;2023-06-04T02:07:22;2.67;;;2.10;;
17763;SDS011;22245;52.832;13.816;2023-06-04T02:10:46;7.97;;;2.40;;
17763;SDS011;22245;52.832;13.816;2023-06-04T02:14:08;3.60;;;2.10;;
17763;SDS011;22245;52.832;13.816;2023-06-04T02:17:31;4.97;;;2.00;;
17763;SDS011;22245;52.832;13.816;2023-06-04T02:21:00;4.43;;;2.50;;
17763;SDS011;22245;52.832;13.816;2023-06-04T02:24:22;3.87;;;2.23;;
17763;SDS011;22245;52.832;13.816;2023-06-04T02:27:43;3.60;;;1.90;;
17763;SDS011;22245;52.832;13.816;2023-06-04T02:31:05;4.57;;;1.80;;
17763;SDS011;22245;52.832;13.816;2023-06-04T02:34:28;2.10;;;1.73;;
17763;SDS011;22245;52.832;13.816;2023-06-04T02:37:50;5.87;;;3.03;;
17763;SDS011;22245;52.832;13.816;2023-06-04T02:41:11;6.83;;;1.87;;
17763;SDS011;22245;52.832;13.816;2023-06-04T02:44:33;6.37;;;1.80;;
17763;SDS011;22245;52.832;13.816;2023-06-04T02:47:55;2.10;;;1.50;;
17763;SDS011;22245;52.832;13.816;2023-06-04T02:51:18;3.57;;;1.80;;
17763;SDS011;22245;52.832;13.816;2023-06-04T02:54:40;5.17;;;1.90;;
17763;SDS011;22245;52.832;13.816;2023-06-04T02:58:02;4.13;;;1.60;;
17763;SDS011;22245;52.832;13.816;2023-06-04T03:01:24;5.30;;;2.37;;
17763;SDS011;22245;52.832;13.816;2023-06-04T03:04:47;2.67;;;1.97;;
17763;SDS011;22245;52.832;13.816;2023-06-04T03:08:12;3.93;;;1.73;;
17763;SDS011;22245;52.832;13.816;2023-06-04T03:11:34;2.23;;;1.60;;
17763;SDS011;22245;52.832;13.816;2023-06-04T03:14:56;3.40;;;1.87;;
17763;SDS011;22245;52.832;13.816;2023-06-04T03:18:18;2.67;;;1.60;;
17763;SDS011;22245;52.832;13.816;2023-06-04T03:21:40;4.57;;;1.97;;
17763;SDS011;22245;52.832;13.816;2023-06-04T03:25:04;3.67;;;2.07;;
17763;SDS011;22245;52.832;13.816;2023-06-04T03:28:27;3.10;;;1.50;;
17763;SDS011;22245;52.832;13.816;2023-06-04T03:31:49;3.13;;;1.63;;
17763;SDS011;22245;52.832;13.816;2023-06-04T03:35:11;4.37;;;1.70;;
17763;SDS011;22245;52.832;13.816;2023-06-04T03:38:32;3.20;;;1.90;;
17763;SDS011;22245;52.832;13.816;2023-06-04T03:41:55;4.27;;;1.67;;
17763;SDS011;22245;52.832;13.816;2023-06-04T03:45:17;4.30;;;1.90;;
17763;SDS011;22245;52.832;13.816;2023-06-04T03:48:40;3.10;;;1.80;;
17763;SDS011;22245;52.832;13.816;2023-06-04T03:52:03;3.53;;;1.80;;
17763;SDS011;22245;52.832;13.816;2023-06-04T03:55:25;3.10;;;1.60;;
17763;SDS011;22245;52.832;13.816;2023-06-04T03:58:49;3.67;;;1.90;;
17763;SDS011;22245;52.832;13.816;2023-06-04T04:02:11;2.77;;;1.77;;
17763;SDS011;22245;52.832;13.816;2023-06-04T04:05:33;5.00;;;1.77;;
17763;SDS011;22245;52.832;13.816;2023-06-04T04:08:55;3.47;;;1.70;;
17763;SDS011;22245;52.832;13.816;2023-06-04T04:12:18;4.80;;;1.87;;
17763;SDS011;22245;52.832;13.816;2023-06-04T04:15:41;6.73;;;1.83;;
17763;SDS011;22245;52.832;13.816;2023-06-04T04:19:04;3.80;;;1.63;;
17763;SDS011;22245;52.832;13.816;2023-06-04T04:22:28;2.13;;;1.50;;
17763;SDS011;22245;52.832;13.816;2023-06-04T04:25:49;3.57;;;2.00;;
17763;SDS011;22245;52.832;13.816;2023-06-04T04:29:11;3.00;;;1.80;;
17763;SDS011;22245;52.832;13.816;2023-06-04T04:32:35;5.03;;;2.07;;
17763;SDS011;22245;52.832;13.816;2023-06-04T04:36:01;3.43;;;1.83;;
17763;SDS011;22245;52.832;13.816;2023-06-04T04:39:24;6.60;;;2.10;;
17763;SDS011;22245;52.832;13.816;2023-06-04T04:42:49;2.93;;;1.80;;
17763;SDS011;22245;52.832;13.816;2023-06-04T04:46:12;3.10;;;1.80;;
17763;SDS011;22245;52.832;13.816;2023-06-04T04:49:35;3.33;;;2.37;;
17763;SDS011;22245;52.832;13.816;2023-06-04T04:52:57;5.43;;;1.87;;
17763;SDS011;22245;52.832;13.816;2023-06-04T04:56:19;3.80;;;2.23;;
17763;SDS011;22245;52.832;13.816;2023-06-04T04:59:44;5.83;;;2.17;;
17763;SDS011;22245;52.832;13.816;2023-06-04T05:03:06;3.60;;;2.40;;
17763;SDS011;22245;52.832;13.816;2023-06-04T05:06:29;2.63;;;1.87;;
17763;SDS011;22245;52.832;13.816;2023-06-04T05:09:51;2.30;;;1.87;;
17763;SDS011;22245;52.832;13.816;2023-06-04T05:13:13;3.17;;;2.10;;
17763;SDS011;22245;52.832;13.816;2023-06-04T05:16:42;6.60;;;2.63;;
17763;SDS011;22245;52.832;13.816;2023-06-04T05:20:06;5.80;;;2.10;;
17763;SDS011;22245;52.832;13.816;2023-06-04T05:23:36;3.47;;;2.20;;
17763;SDS011;22245;52.832;13.816;2023-06-04T05:26:59;4.88;;;2.35;;
17763;SDS011;22245;52.832;13.816;2023-06-04T05:30:24;3.67;;;2.53;;
17763;SDS011;22245;52.832;13.816;2023-06-04T05:33:46;3.78;;;2.30;;
17763;SDS011;22245;52.832;13.816;2023-06-04T05:37:12;3.28;;;2.15;;
17763;SDS011;22245;52.832;13.816;2023-06-04T05:40:38;3.05;;;2.08;;
17763;SDS011;22245;52.832;13.816;2023-06-04T05:44:00;2.33;;;1.92;;
17763;SDS011;22245;52.832;13.816;2023-06-04T05:47:21;3.28;;;1.85;;
17763;SDS011;22245;52.832;13.816;2023-06-04T05:50:44;3.13;;;1.70;;
17763;SDS011;22245;52.832;13.816;2023-06-04T05:54:07;3.30;;;1.85;;
17763;SDS011;22245;52.832;13.816;2023-06-04T05:57:34;5.38;;;1.98;;
17763;SDS011;22245;52.832;13.816;2023-06-04T06:00:56;6.78;;;2.10;;
17763;SDS011;22245;52.832;13.816;2023-06-04T06:04:18;2.33;;;1.40;;
17763;SDS011;22245;52.832;13.816;2023-06-04T06:07:40;2.85;;;2.10;;
17763;SDS011;22245;52.832;13.816;2023-06-04T06:11:03;3.65;;;1.80;;
17763;SDS011;22245;52.832;13.816;2023-06-04T06:14:31;2.88;;;2.00;;
17763;SDS011;22245;52.832;13.816;2023-06-04T06:17:54;2.15;;;1.50;;
17763;SDS011;22245;52.832;13.816;2023-06-04T06:21:16;3.83;;;1.85;;
17763;SDS011;22245;52.832;13.816;2023-06-04T06:24:38;3.10;;;1.83;;
17763;SDS011;22245;52.832;13.816;2023-06-04T06:28:01;2.83;;;1.80;;
17763;SDS011;22245;52.832;13.816;2023-06-04T06:31:25;2.13;;;1.40;;
17763;SDS011;22245;52.832;13.816;2023-06-04T06:34:47;2.95;;;1.92;;
17763;SDS011;22245;52.832;13.816;2023-06-04T06:38:08;3.10;;;1.73;;
17763;SDS011;22245;52.832;13.816;2023-06-04T06:41:30;6.05;;;1.65;;
17763;SDS011;22245;52.832;13.816;2023-06-04T06:44:52;3.08;;;1.60;;
17763;SDS011;22245;52.832;13.816;2023-06-04T06:48:15;3.85;;;1.80;;
17763;SDS011;22245;52.832;13.816;2023-06-04T06:51:37;2.92;;;1.65;;
17763;SDS011;22245;52.832;13.816;2023-06-04T06:54:59;3.08;;;1.80;;
17763;SDS011;22245;52.832;13.816;2023-06-04T06:58:21;6.43;;;1.80;;
17763;SDS011;22245;52.832;13.816;2023-06-04T07:01:43;3.47;;;1.50;;
17763;SDS011;22245;52.832;13.816;2023-06-04T07:05:06;4.00;;;1.60;;
17763;SDS011;22245;52.832;13.816;2023-06-04T07:08:29;2.10;;;1.40;;
17763;SDS011;22245;52.832;13.816;2023-06-04T07:11:51;2.13;;;1.20;;
17763;SDS011;22245;52.832;13.816;2023-06-04T07:15:13;3.08;;;1.40;;
17763;SDS011;22245;52.832;13.816;2023-06-04T07:18:35;2.67;;;0.93;;
17763;SDS011;22245;52.832;13.816;2023-06-04T07:21:57;3.10;;;1.10;;
17763;SDS011;22245;52.832;13.816;2023-06-04T07:25:19;4.13;;;1.30;;
17763;SDS011;22245;52.832;13.816;2023-06-04T07:28:44;3.60;;;1.00;;
17763;SDS011;22245;52.832;13.816;2023-06-04T07:32:05;2.17;;;1.10;;
17763;SDS011;22245;52.832;13.816;2023-06-04T07:35:27;4.00;;;1.13;;
17763;SDS011;22245;52.832;13.816;2023-06-04T07:38:50;2.33;;;1.20;;
17763;SDS011;22245;52.832;13.816;2023-06-04T07:42:12;2.83;;;1.00;;
17763;SDS011;22245;52.832;13.816;2023-06-04T07:45:35;2.35;;;1.05;;
17763;SDS011;22245;52.832;13.816;2023-06-04T07:48:56;1.65;;;1.00;;
17763;SDS011;22245;52.832;13.816;2023-06-04T07:52:18;1.80;;;1.10;;
17763;SDS011;22245;52.832;13.816;2023-06-04T07:55:42;3.75;;;0.90;;
17763;SDS011;22245;52.832;13.816;2023-06-04T07:59:04;1.98;;;0.90;;
17763;SDS011;22245;52.832;13.816;2023-06-04T08:02:25;2.25;;;1.08;;
17763;SDS011;22245;52.832;13.816;2023-06-04T08:05:48;1.35;;;0.80;;
17763;SDS011;22245;52.832;13.816;2023-06-04T08:09:10;1.23;;;0.75;;
17763;SDS011;22245;52.832;13.816;2023-06-04T08:12:35;2.85;;;0.80;;
17763;SDS011;22245;52.832;13.816;2023-06-04T08:15:57;1.42;;;0.77;;
17763;SDS011;22245;52.832;13.816;2023-06-04T08:19:19;2.25;;;1.00;;
17763;SDS011;22245;52.832;13.816;2023-06-04T08:22:41;1.20;;;0.77;;
17763;SDS011;22245;52.832;13.816;2023-06-04T08:26:02;2.53;;;0.90;;
17763;SDS011;22245;52.832;13.816;2023-06-04T08:29:29;2.33;;;1.10;;
17763;SDS011;22245;52.832;13.816;2023-06-04T08:32:50;1.10;;;0.70;;
17763;SDS011;22245;52.832;13.816;2023-06-04T08:36:12;1.33;;;0.90;;
17763;SDS011;22245;52.832;13.816;2023-06-04T08:39:34;1.83;;;1.10;;
17763;SDS011;22245;52.832;13.816;2023-06-04T08:42:56;2.95;;;1.05;;
17763;SDS011;22245;52.832;13.816;2023-06-04T08:46:21;1.00;;;0.90;;
17763;SDS011;22245;52.832;13.816;2023-06-04T08:49:43;0.98;;;0.77;;
17763;SDS011;22245;52.832;13.816;2023-06-04T08:53:09;1.63;;;1.00;;
17763;SDS011;22245;52.832;13.816;2023-06-04T08:56:35;1.58;;;1.08;;
17763;SDS011;22245;52.832;13.816;2023-06-04T08:59:58;1.25;;;1.05;;
17763;SDS011;22245;52.832;13.816;2023-06-04T09:03:22;1.70;;;1.00;;
17763;SDS011;22245;52.832;13.816;2023-06-04T09:06:45;1.83;;;0.90;;
17763;SDS011;22245;52.832;13.816;2023-06-04T09:10:08;1.75;;;0.95;;
17763;SDS011;22245;52.832;13.816;2023-06-04T09:13:33;1.17;;;0.77;;
17763;SDS011;22245;52.832;13.816;2023-06-04T09:16:56;3.85;;;1.20;;
17763;SDS011;22245;52.832;13.816;2023-06-04T09:20:20;3.55;;;1.08;;
17763;SDS011;22245;52.832;13.816;2023-06-04T09:23:43;3.97;;;1.30;;
17763;SDS011;22245;52.832;13.816;2023-06-04T09:27:10;3.40;;;1.23;;
17763;SDS011;22245;52.832;13.816;2023-06-04T09:30:32;1.13;;;0.80;;
17763;SDS011;22245;52.832;13.816;2023-06-04T09:33:54;1.67;;;0.90;;
17763;SDS011;22245;52.832;13.816;2023-06-04T09:37:17;1.83;;;1.10;;
17763;SDS011;22245;52.832;13.816;2023-06-04T09:40:42;1.92;;;1.00;;
17763;SDS011;22245;52.832;13.816;2023-06-04T09:44:03;2.78;;;0.90;;
17763;SDS011;22245;52.832;13.816;2023-06-04T09:47:25;1.17;;;0.88;;
17763;SDS011;22245;52.832;13.816;2023-06-04T09:50:51;1.00;;;0.70;;
17763;SDS011;22245;52.832;13.816;2023-06-04T09:54:15;1.55;;;1.00;;
17763;SDS011;22245;52.832;13.816;2023-06-04T09:57:36;2.15;;;0.90;;
17763;SDS011;22245;52.832;13.816;2023-06-04T10:01:00;3.92;;;1.10;;
17763;SDS011;22245;52.832;13.816;2023-06-04T10:04:23;1.27;;;1.00;;
17763;SDS011;22245;52.832;13.816;2023-06-04T10:07:46;2.35;;;1.00;;
17763;SDS011;22245;52.832;13.816;2023-06-04T10:11:09;3.40;;;1.10;;
17763;SDS011;22245;52.832;13.816;2023-06-04T10:14:34;1.00;;;0.90;;
17763;SDS011;22245;52.832;13.816;2023-06-04T10:18:00;1.88;;;1.10;;
17763;SDS011;22245;52.832;13.816;2023-06-04T10:21:23;3.90;;;1.00;;
17763;SDS011;22245;52.832;13.816;2023-06-04T10:24:47;3.67;;;1.10;;
17763;SDS011;22245;52.832;13.816;2023-06-04T10:28:10;1.27;;;0.80;;
17763;SDS011;22245;52.832;13.816;2023-06-04T10:31:34;3.72;;;0.98;;
17763;SDS011;22245;52.832;13.816;2023-06-04T10:34:56;1.33;;;0.80;;
17763;SDS011;22245;52.832;13.816;2023-06-04T10:38:18;2.00;;;1.10;;
17763;SDS011;22245;52.832;13.816;2023-06-04T10:41:41;1.90;;;1.00;;
17763;SDS011;22245;52.832;13.816;2023-06-04T10:45:05;5.90;;;1.10;;
17763;SDS011;22245;52.832;13.816;2023-06-04T10:48:30;1.58;;;1.10;;
17763;SDS011;22245;52.832;13.816;2023-06-04T10:51:51;1.75;;;1.02;;
17763;SDS011;22245;52.832;13.816;2023-06-04T10:55:13;1.83;;;1.02;;
17763;SDS011;22245;52.832;13.816;2023-06-04T10:58:34;1.55;;;1.08;;
17763;SDS011;22245;52.832;13.816;2023-06-04T11:02:05;0.82;;;0.70;;
17763;SDS011;22245;52.832;13.816;2023-06-04T11:05:33;1.58;;;0.90;;
17763;SDS011;22245;52.832;13.816;2023-06-04T11:09:01;1.15;;;1.00;;
17763;SDS011;22245;52.832;13.816;2023-06-04T11:12:25;1.17;;;1.00;;
17763;SDS011;22245;52.832;13.816;2023-06-04T11:15:47;1.10;;;0.85;;
17763;SDS011;22245;52.832;13.816;2023-06-04T11:19:10;1.90;;;1.10;;
17763;SDS011;22245;52.832;13.816;2023-06-04T11:22:32;2.08;;;1.00;;
17763;SDS011;22245;52.832;13.816;2023-06-04T11:25:54;1.40;;;1.27;;
17763;SDS011;22245;52.832;13.816;2023-06-04T11:29:18;2.05;;;1.38;;
17763;SDS011;22245;52.832;13.816;2023-06-04T11:32:40;2.45;;;1.10;;
17763;SDS011;22245;52.832;13.816;2023-06-04T11:36:04;1.80;;;1.00;;
17763;SDS011;22245;52.832;13.816;2023-06-04T11:39:33;2.63;;;0.90;;
17763;SDS011;22245;52.832;13.816;2023-06-04T11:42:55;1.25;;;0.95;;
17763;SDS011;22245;52.832;13.816;2023-06-04T11:46:17;0.98;;;0.82;;
17763;SDS011;22245;52.832;13.816;2023-06-04T11:49:40;2.05;;;1.10;;
17763;SDS011;22245;52.832;13.816;2023-06-04T11:53:04;2.22;;;1.25;;
17763;SDS011;22245;52.832;13.816;2023-06-04T11:56:26;2.28;;;1.00;;
17763;SDS011;22245;52.832;13.816;2023-06-04T11:59:47;2.00;;;1.05;;
17763;SDS011;22245;52.832;13.816;2023-06-04T12:03:09;2.50;;;1.08;;
17763;SDS011;22245;52.832;13.816;2023-06-04T12:06:31;4.72;;;1.20;;
17763;SDS011;22245;52.832;13.816;2023-06-04T12:10:04;3.42;;;1.13;;
17763;SDS011;22245;52.832;13.816;2023-06-04T12:13:26;1.08;;;0.90;;
17763;SDS011;22245;52.832;13.816;2023-06-04T12:16:55;1.90;;;1.10;;
17763;SDS011;22245;52.832;13.816;2023-06-04T12:20:17;3.03;;;1.20;;
17763;SDS011;22245;52.832;13.816;2023-06-04T12:23:40;2.30;;;1.17;;
17763;SDS011;22245;52.832;13.816;2023-06-04T12:27:04;2.30;;;1.10;;
17763;SDS011;22245;52.832;13.816;2023-06-04T12:30:36;2.35;;;1.00;;
17763;SDS011;22245;52.832;13.816;2023-06-04T12:33:59;2.00;;;1.17;;
17763;SDS011;22245;52.832;13.816;2023-06-04T12:37:22;2.17;;;1.10;;
17763;SDS011;22245;52.832;13.816;2023-06-04T12:40:45;3.05;;;1.27;;
17763;SDS011;22245;52.832;13.816;2023-06-04T12:44:08;1.63;;;1.20;;
17763;SDS011;22245;52.832;13.816;2023-06-04T12:47:30;1.15;;;1.05;;
17763;SDS011;22245;52.832;13.816;2023-06-04T12:50:51;5.93;;;1.13;;
17763;SDS011;22245;52.832;13.816;2023-06-04T12:54:13;2.05;;;0.95;;
17763;SDS011;22245;52.832;13.816;2023-06-04T12:57:34;2.33;;;1.05;;
17763;SDS011;22245;52.832;13.816;2023-06-04T13:00:57;1.80;;;1.00;;
17763;SDS011;22245;52.832;13.816;2023-06-04T13:04:19;1.90;;;1.10;;
17763;SDS011;22245;52.832;13.816;2023-06-04T13:07:43;2.67;;;1.05;;
17763;SDS011;22245;52.832;13.816;2023-06-04T13:11:05;3.22;;;1.20;;
17763;SDS011;22245;52.832;13.816;2023-06-04T13:14:28;1.10;;;0.98;;
17763;SDS011;22245;52.832;13.816;2023-06-04T13:17:54;1.58;;;1.10;;
17763;SDS011;22245;52.832;13.816;2023-06-04T13:21:16;1.95;;;1.20;;
17763;SDS011;22245;52.832;13.816;2023-06-04T13:24:37;4.60;;;1.20;;
17763;SDS011;22245;52.832;13.816;2023-06-04T13:27:59;2.47;;;1.10;;
17763;SDS011;22245;52.832;13.816;2023-06-04T13:31:21;2.80;;;1.00;;
17763;SDS011;22245;52.832;13.816;2023-06-04T13:34:44;2.28;;;1.10;;
17763;SDS011;22245;52.832;13.816;2023-06-04T13:38:06;1.42;;;1.10;;
17763;SDS011;22245;52.832;13.816;2023-06-04T13:41:27;5.45;;;1.10;;
17763;SDS011;22245;52.832;13.816;2023-06-04T13:44:49;2.92;;;1.10;;
17763;SDS011;22245;52.832;13.816;2023-06-04T13:48:11;2.22;;;1.10;;
17763;SDS011;22245;52.832;13.816;2023-06-04T13:51:34;1.27;;;0.90;;
17763;SDS011;22245;52.832;13.816;2023-06-04T13:54:56;1.95;;;1.10;;
17763;SDS011;22245;52.832;13.816;2023-06-04T13:58:18;1.67;;;1.15;;
17763;SDS011;22245;52.832;13.816;2023-06-04T14:01:40;2.10;;;1.17;;
17763;SDS011;22245;52.832;13.816;2023-06-04T14:05:04;3.03;;;1.27;;
17763;SDS011;22245;52.832;13.816;2023-06-04T14:08:28;3.88;;;1.20;;
17763;SDS011;22245;52.832;13.816;2023-06-04T14:11:49;3.15;;;1.10;;
17763;SDS011;22245;52.832;13.816;2023-06-04T14:15:11;3.88;;;1.02;;
17763;SDS011;22245;52.832;13.816;2023-06-04T14:18:33;1.55;;;1.10;;
17763;SDS011;22245;52.832;13.816;2023-06-04T14:21:55;1.90;;;1.20;;
17763;SDS011;22245;52.832;13.816;2023-06-04T14:25:18;2.95;;;1.25;;
17763;SDS011;22245;52.832;13.816;2023-06-04T14:28:40;1.33;;;1.10;;
17763;SDS011;22245;52.832;13.816;2023-06-04T14:32:01;3.28;;;1.33;;
17763;SDS011;22245;52.832;13.816;2023-06-04T14:35:23;2.13;;;1.10;;
17763;SDS011;22245;52.832;13.816;2023-06-04T14:38:45;2.08;;;1.10;;
17763;SDS011;22245;52.832;13.816;2023-06-04T14:42:09;2.25;;;1.20;;
17763;SDS011;22245;52.832;13.816;2023-06-04T14:45:31;3.47;;;1.10;;
17763;SDS011;22245;52.832;13.816;2023-06-04T14:48:53;1.63;;;1.05;;
17763;SDS011;22245;52.832;13.816;2023-06-04T14:52:14;2.25;;;1.10;;
17763;SDS011;22245;52.832;13.816;2023-06-04T14:55:36;3.05;;;1.20;;
17763;SDS011;22245;52.832;13.816;2023-06-04T14:58:59;2.75;;;1.13;;
17763;SDS011;22245;52.832;13.816;2023-06-04T15:02:25;3.58;;;1.20;;
17763;SDS011;22245;52.832;13.816;2023-06-04T15:05:49;1.63;;;1.38;;
17763;SDS011;22245;52.832;13.816;2023-06-04T15:09:15;2.03;;;1.17;;
17763;SDS011;22245;52.832;13.816;2023-06-04T15:12:37;1.63;;;1.20;;
17763;SDS011;22245;52.832;13.816;2023-06-04T15:16:01;1.67;;;1.20;;
17763;SDS011;22245;52.832;13.816;2023-06-04T15:19:23;1.77;;;1.10;;
17763;SDS011;22245;52.832;13.816;2023-06-04T15:22:46;2.10;;;1.20;;
17763;SDS011;22245;52.832;13.816;2023-06-04T15:26:08;2.08;;;1.30;;
17763;SDS011;22245;52.832;13.816;2023-06-04T15:29:30;2.50;;;1.40;;
17763;SDS011;22245;52.832;13.816;2023-06-04T15:32:53;3.05;;;1.38;;
17763;SDS011;22245;52.832;13.816;2023-06-04T15:36:15;1.67;;;1.17;;
17763;SDS011;22245;52.832;13.816;2023-06-04T15:39:36;4.22;;;1.98;;
17763;SDS011;22245;52.832;13.816;2023-06-04T15:42:58;1.60;;;1.00;;
17763;SDS011;22245;52.832;13.816;2023-06-04T15:46:21;3.47;;;1.10;;
17763;SDS011;22245;52.832;13.816;2023-06-04T15:49:45;2.75;;;1.08;;
17763;SDS011;22245;52.832;13.816;2023-06-04T15:53:07;1.70;;;1.33;;
17763;SDS011;22245;52.832;13.816;2023-06-04T15:56:29;2.50;;;1.15;;
17763;SDS011;22245;52.832;13.816;2023-06-04T15:59:51;0.80;;;0.80;;
17763;SDS011;22245;52.832;13.816;2023-06-04T16:03:13;1.65;;;1.20;;
17763;SDS011;22245;52.832;13.816;2023-06-04T16:06:36;1.92;;;0.95;;
17763;SDS011;22245;52.832;13.816;2023-06-04T16:09:58;1.75;;;1.00;;
17763;SDS011;22245;52.832;13.816;2023-06-04T16:13:20;3.10;;;1.10;;
17763;SDS011;22245;52.832;13.816;2023-06-04T16:16:42;1.38;;;0.95;;
17763;SDS011;22245;52.832;13.816;2023-06-04T16:20:07;2.08;;;1.88;;
17763;SDS011;22245;52.832;13.816;2023-06-04T16:23:32;5.43;;;1.52;;
17763;SDS011;22245;52.832;13.816;2023-06-04T16:26:54;2.63;;;1.10;;
17763;SDS011;22245;52.832;13.816;2023-06-04T16:30:15;3.40;;;2.08;;
17763;SDS011;22245;52.832;13.816;2023-06-04T16:33:37;4.05;;;1.67;;
17763;SDS011;22245;52.832;13.816;2023-06-04T16:36:59;1.30;;;1.10;;
17763;SDS011;22245;52.832;13.816;2023-06-04T16:40:22;2.63;;;1.10;;
17763;SDS011;22245;52.832;13.816;2023-06-04T16:43:45;4.13;;;1.10;;
17763;SDS011;22245;52.832;13.816;2023-06-04T16:47:07;2.08;;;1.30;;
17763;SDS011;22245;52.832;13.816;2023-06-04T16:50:29;2.35;;;1.15;;
17763;SDS011;22245;52.832;13.816;2023-06-04T16:53:50;7.82;;;1.63;;
17763;SDS011;22245;52.832;13.816;2023-06-04T16:57:14;3.17;;;1.30;;
17763;SDS011;22245;52.832;13.816;2023-06-04T17:00:35;2.10;;;1.05;;
17763;SDS011;22245;52.832;13.816;2023-06-04T17:03:57;3.50;;;1.05;;
17763;SDS011;22245;52.832;13.816;2023-06-04T17:07:18;1.67;;;1.10;;
17763;SDS011;22245;52.832;13.816;2023-06-04T17:10:40;2.38;;;1.13;;
17763;SDS011;22245;52.832;13.816;2023-06-04T17:14:04;2.55;;;1.20;;
17763;SDS011;22245;52.832;13.816;2023-06-04T17:17:25;12.48;;;1.55;;
17763;SDS011;22245;52.832;13.816;2023-06-04T17:20:47;3.92;;;1.00;;
17763;SDS011;22245;52.832;13.816;2023-06-04T17:24:09;6.05;;;1.30;;
17763;SDS011;22245;52.832;13.816;2023-06-04T17:27:31;2.67;;;1.23;;
17763;SDS011;22245;52.832;13.816;2023-06-04T17:30:54;2.10;;;1.30;;
17763;SDS011;22245;52.832;13.816;2023-06-04T17:34:16;3.53;;;1.23;;
17763;SDS011;22245;52.832;13.816;2023-06-04T17:37:38;1.30;;;0.93;;
17763;SDS011;22245;52.832;13.816;2023-06-04T17:41:00;2.95;;;1.40;;
17763;SDS011;22245;52.832;13.816;2023-06-04T17:44:23;5.15;;;1.30;;
17763;SDS011;22245;52.832;13.816;2023-06-04T17:47:46;2.95;;;1.38;;
17763;SDS011;22245;52.832;13.816;2023-06-04T17:51:08;4.80;;;1.60;;
17763;SDS011;22245;52.832;13.816;2023-06-04T17:54:30;2.88;;;1.60;;
17763;SDS011;22245;52.832;13.816;2023-06-04T17:57:51;2.72;;;1.27;;
17763;SDS011;22245;52.832;13.816;2023-06-04T18:01:15;4.90;;;1.40;;
17763;SDS011;22245;52.832;13.816;2023-06-04T18:04:41;2.03;;;1.50;;
17763;SDS011;22245;52.832;13.816;2023-06-04T18:08:02;5.03;;;1.40;;
17763;SDS011;22245;52.832;13.816;2023-06-04T18:11:24;2.88;;;1.40;;
17763;SDS011;22245;52.832;13.816;2023-06-04T18:14:46;2.70;;;1.50;;
17763;SDS011;22245;52.832;13.816;2023-06-04T18:18:08;1.98;;;1.55;;
17763;SDS011;22245;52.832;13.816;2023-06-04T18:21:31;1.73;;;1.42;;
17763;SDS011;22245;52.832;13.816;2023-06-04T18:24:52;5.65;;;2.00;;
17763;SDS011;22245;52.832;13.816;2023-06-04T18:28:14;4.88;;;1.92;;
17763;SDS011;22245;52.832;13.816;2023-06-04T18:31:36;4.13;;;2.00;;
17763;SDS011;22245;52.832;13.816;2023-06-04T18:34:58;2.00;;;1.50;;
17763;SDS011;22245;52.832;13.816;2023-06-04T18:38:21;4.18;;;1.58;;
17763;SDS011;22245;52.832;13.816;2023-06-04T18:41:43;2.50;;;1.80;;
17763;SDS011;22245;52.832;13.816;2023-06-04T18:45:05;6.30;;;2.00;;
17763;SDS011;22245;52.832;13.816;2023-06-04T18:48:29;4.05;;;1.58;;
17763;SDS011;22245;52.832;13.816;2023-06-04T18:51:51;3.60;;;2.13;;
17763;SDS011;22245;52.832;13.816;2023-06-04T18:55:15;2.45;;;1.45;;
17763;SDS011;22245;52.832;13.816;2023-06-04T18:58:37;10.68;;;1.58;;
17763;SDS011;22245;52.832;13.816;2023-06-04T19:01:59;2.42;;;1.70;;
17763;SDS011;22245;52.832;13.816;2023-06-04T19:05:21;5.78;;;1.75;;
17763;SDS011;22245;52.832;13.816;2023-06-04T19:08:43;8.48;;;2.08;;
17763;SDS011;22245;52.832;13.816;2023-06-04T19:12:06;9.40;;;2.10;;
17763;SDS011;22245;52.832;13.816;2023-06-04T19:15:28;5.85;;;1.80;;
17763;SDS011;22245;52.832;13.816;2023-06-04T19:18:50;8.23;;;1.90;;
17763;SDS011;22245;52.832;13.816;2023-06-04T19:22:12;5.72;;;3.30;;
17763;SDS011;22245;52.832;13.816;2023-06-04T19:25:35;3.90;;;2.33;;
17763;SDS011;22245;52.832;13.816;2023-06-04T19:28:58;4.63;;;2.63;;
17763;SDS011;22245;52.832;13.816;2023-06-04T19:32:20;6.53;;;2.17;;
17763;SDS011;22245;52.832;13.816;2023-06-04T19:35:41;4.35;;;1.80;;
17763;SDS011;22245;52.832;13.816;2023-06-04T19:39:03;4.28;;;1.70;;
17763;SDS011;22245;52.832;13.816;2023-06-04T19:42:25;2.75;;;1.50;;
17763;SDS011;22245;52.832;13.816;2023-06-04T19:45:47;5.07;;;1.50;;
17763;SDS011;22245;52.832;13.816;2023-06-04T19:49:10;5.22;;;1.55;;
17763;SDS011;22245;52.832;13.816;2023-06-04T19:52:32;4.75;;;1.45;;
17763;SDS011;22245;52.832;13.816;2023-06-04T19:55:53;3.95;;;1.40;;
17763;SDS011;22245;52.832;13.816;2023-06-04T19:59:15;10.98;;;1.50;;
17763;SDS011;22245;52.832;13.816;2023-06-04T20:02:38;2.80;;;1.10;;